Oakwood, Georgia
Current Conditions -  °F | °C
As of 7:53 PM on Monday 22 Dec 2014 (Local Time) from KGVL Reporting Station
Moderate Rain Moderate Rain  
Wind Chill: 33°   Ceiling: 400
Heat Index: 41°   Visibility: 4mi
Dew Point: 40°   Wind: 15mph
Humidity: 96%   Direction: 90°E
Pressure: 29.97"   Gusts: 21mph
Location:  34.23°N, 83.88°W
Report Text: KGVL 230053Z AUTO 09013G18KT 4SM RA BR OVC004 05/04 A2997 RMK AO2 CIG 003V007 SLP149 P0017 T00500044
Loading
Personal Weather Stations






























Interactive Weather Map New forecast layout! Learn more

10-Day Weather Forecast

Advertisements
Track Severe Weather on mobile